Impacts TAF Board
For situational awareness. Not to be used for flight planning purposes.
IDs:

KMSP - Minneapolis-St Paul, MN, US

Issued at 1720 UTC 31 Jan 2023
Updated at 1915 UTC 31 Jan 2023
Potential Impact None Slight Moderate High
Time1853Z 31/20Z 31/21Z 31/22Z 31/23Z 01/00Z 01/01Z 01/02Z 01/03Z 01/04Z 01/05Z 01/06Z 01/07Z 01/08Z>>
Type OBS PRVL PRVL PRVL PRVL PRVL PRVL PRVL PRVL PRVL PRVL PRVL PRVL PRVL
VIS 10 >6 >6 >6 >6 >6 >6 >6 >6 >6 >6 >6 >6 >6
CIG 46 -- -- -- -- -- -- -- -- -- -- -- -- --
Cover BKN SCT SCT SCT SCT SCT SCT SCT SCT SCT SCT SCT SCT SCT
FltCat VFR VFR VFR VFR VFR VFR VFR VFR VFR VFR VFR VFR VFR VFR
WX -- -- -- -- -- -- -- -- -- -- -- -- -- --
WDir 220 230 230 230 190 190 190 190 190 190 190 190 190 190
WSpd 9 9 9 9 5 5 5 5 5 5 5 5 5 5
WGst -- -- -- -- -- -- -- -- -- -- -- -- -- --
WSHgt -- -- -- -- -- -- -- -- -- -- -- -- -- --
WSDir -- -- -- -- -- -- -- -- -- -- -- -- -- --
WSSpd -- -- -- -- -- -- -- -- -- -- -- -- -- --

NOTE: LAMP data beyond the time of the TAF data is denoted as LAMP in Type and colored magenta.

Raw TAF
KMSP 311720Z 3118/0124 23009KT P6SM SCT045
  FM312300 19005KT P6SM SCT120


Raw METAR
KMSP 311853Z 22009KT 10SM BKN046 M15/M22 A3024 RMK AO2 SLP266 T11501222
KMSP 311753Z 24010KT 10SM BKN046 M16/M22 A3027 RMK AO2 SLP276 4/010 T11561222 11150 21217 58003
KMSP 311653Z 22007KT 10SM BKN049 M17/M23 A3029 RMK AO2 SLP280 T11671228

METAR Board
Radar Display
Forecast Discussion

For situational awareness. Not to be used for flight planning purposes.